Drogobych, Ukraine
Current Conditions -  °F | °C
As of 7:00 PM on Sunday 25 Jan 2015 (Local Time) from UKLL Reporting Station
Light Snow Light Snow  
Wind Chill: 32°   Ceiling: 400
Heat Index: 32°   Visibility: 1.7mi
Dew Point: 32°   Wind: 2mph
Humidity: 100%   Direction: 210°SSW
Pressure: 30.03"   Gusts: NA
Location:  49.35°N, 23.52°E
Report Text: UKLL 251600Z 21001MPS 2800 -SNRA OVC004 00/M00 Q1017 31290065 TEMPO BKN003
Loading
Personal Weather Stations






























Interactive Weather Map New forecast layout! Learn more

10-Day Weather Forecast

Advertisements
Track Severe Weather on mobile